Time;durP1;ratioP1;P1;durP2;ratioP2;P2;SDS_P1;SDS_P2;PMS_P1;PMS_P2;Temp;Humidity;BMP_temperature;BMP_pressure;BME280_temperature;BME280_humidity;BME280_pressure;Samples;Min_cycle;Max_cycle;Signal;HPM_P1;HPM_P2
2022/04/29 00:00:45;;;;;;;5.15;2.40;;;11.00;72.30;;;;;;5075206;28;20051;-70
2022/04/29 00:03:15;;;;;;;10.00;2.92;;;11.00;72.10;;;;;;5073426;28;20036;-70
2022/04/29 00:05:43;;;;;;;6.32;2.70;;;11.00;72.00;;;;;;5078557;28;20520;-70
2022/04/29 00:08:12;;;;;;;4.72;2.58;;;11.00;72.00;;;;;;5078012;28;20044;-70
2022/04/29 00:10:40;;;;;;;4.68;2.88;;;11.00;72.00;;;;;;5078618;28;20038;-70
2022/04/29 00:13:09;;;;;;;4.28;2.45;;;10.90;72.20;;;;;;5077860;28;20147;-70
2022/04/29 00:15:36;;;;;;;5.65;2.90;;;10.90;72.20;;;;;;5078832;28;20555;-70
2022/04/29 00:18:03;;;;;;;6.75;2.63;;;10.80;72.30;;;;;;5077285;28;20036;-69
2022/04/29 00:20:31;;;;;;;4.80;2.72;;;10.80;72.30;;;;;;5076452;28;20055;-69
2022/04/29 00:22:59;;;;;;;5.43;2.90;;;10.70;72.40;;;;;;5074799;28;20089;-70
2022/04/29 00:25:29;;;;;;;4.82;2.60;;;10.70;72.50;;;;;;5071810;28;20091;-69
2022/04/29 00:27:56;;;;;;;4.97;2.60;;;10.70;72.40;;;;;;5074658;28;20044;-70
2022/04/29 00:30:23;;;;;;;4.47;2.45;;;10.70;72.50;;;;;;5054763;28;20122;-69
2022/04/29 00:32:51;;;;;;;4.90;2.60;;;10.70;72.50;;;;;;5075804;28;20044;-70
2022/04/29 00:35:18;;;;;;;4.22;2.60;;;10.70;72.60;;;;;;5077118;28;20078;-69
2022/04/29 00:37:46;;;;;;;5.70;2.28;;;10.60;72.70;;;;;;5075487;28;20052;-69
2022/04/29 00:40:15;;;;;;;4.00;2.20;;;10.60;72.80;;;;;;5053212;28;20056;-70
2022/04/29 00:42:45;;;;;;;4.75;2.30;;;10.60;72.70;;;;;;5028830;28;20155;-69
2022/04/29 00:45:13;;;;;;;4.70;2.83;;;10.60;72.60;;;;;;5038194;28;20048;-70
2022/04/29 00:47:40;;;;;;;6.05;2.65;;;10.60;72.70;;;;;;5042786;28;20037;-70
2022/04/29 00:50:08;;;;;;;5.78;2.67;;;10.60;72.60;;;;;;5042305;28;20119;-70
2022/04/29 00:52:38;;;;;;;6.55;2.85;;;10.50;72.70;;;;;;5020509;28;20149;-69
2022/04/29 00:55:09;;;;;;;6.25;2.88;;;10.50;72.70;;;;;;5046967;28;20536;-70
2022/04/29 00:57:45;;;;;;;4.72;2.78;;;10.40;72.80;;;;;;5043288;28;20066;-70
2022/04/29 01:00:15;;;;;;;8.38;3.28;;;10.40;72.80;;;;;;5042724;28;20486;-70
2022/04/29 01:02:43;;;;;;;4.18;2.60;;;10.40;72.90;;;;;;5048588;28;20060;-68
2022/04/29 01:05:12;;;;;;;5.93;2.80;;;10.40;73.00;;;;;;5048471;28;20199;-68
2022/04/29 01:07:41;;;;;;;4.70;2.70;;;10.30;73.00;;;;;;5039037;28;20060;-70
2022/04/29 01:10:12;;;;;;;4.28;2.47;;;10.30;73.20;;;;;;5030209;28;20083;-69
2022/04/29 01:12:43;;;;;;;4.07;2.33;;;10.20;73.10;;;;;;5049074;28;20048;-69
2022/04/29 01:15:14;;;;;;;4.85;2.47;;;10.20;73.20;;;;;;5039058;28;20071;-70
2022/04/29 01:17:43;;;;;;;;;;;10.20;73.20;;;;;;5033509;28;20513;-70
2022/04/29 01:20:12;;;;;;;4.03;1.90;;;10.20;73.20;;;;;;5049828;28;19925;-70
2022/04/29 01:22:44;;;;;;;4.68;2.55;;;10.20;73.20;;;;;;5033373;28;20135;-71
2022/04/29 01:25:11;;;;;;;4.70;2.80;;;10.20;73.10;;;;;;5050632;28;20437;-70
2022/04/29 01:27:39;;;;;;;5.35;2.80;;;10.20;73.20;;;;;;5048005;28;20045;-70
2022/04/29 01:30:09;;;;;;;4.72;2.78;;;10.10;73.30;;;;;;5047598;28;20531;-69
2022/04/29 01:32:39;;;;;;;7.43;2.67;;;10.10;73.40;;;;;;5030728;28;20045;-70
2022/04/29 01:35:10;;;;;;;6.97;2.75;;;10.10;73.40;;;;;;5048337;28;20383;-69
2022/04/29 01:37:37;;;;;;;;;;;10.10;73.50;;;;;;5038426;28;20067;-70
2022/04/29 01:40:07;;;;;;;8.18;3.08;;;10.10;73.50;;;;;;5037279;28;19924;-69
2022/04/29 01:42:35;;;;;;;4.22;2.30;;;10.10;73.50;;;;;;5041370;28;20488;-71
2022/04/29 01:45:02;;;;;;;4.35;2.55;;;10.10;73.40;;;;;;5078825;28;20102;-70
2022/04/29 01:47:32;;;;;;;6.57;3.00;;;10.00;73.50;;;;;;5060621;28;20106;-69
2022/04/29 01:50:12;;;;;;;7.25;2.58;;;10.00;73.60;;;;;;5076314;28;20040;-69
2022/04/29 01:52:40;;;;;;;3.85;2.30;;;10.00;73.60;;;;;;5075104;28;20056;-70
2022/04/29 01:55:09;;;;;;;4.55;2.72;;;9.90;73.60;;;;;;5076795;28;20048;-70
2022/04/29 01:57:36;;;;;;;3.75;2.45;;;9.90;73.70;;;;;;5052453;28;20044;-70
2022/04/29 02:00:04;;;;;;;5.78;2.78;;;9.90;73.70;;;;;;5057758;28;20074;-69
2022/04/29 02:02:46;;;;;;;4.78;2.78;;;9.80;73.80;;;;;;5075884;28;20052;-69
2022/04/29 02:05:16;;;;;;;5.68;3.10;;;9.90;73.80;;;;;;5073309;28;20044;-70
2022/04/29 02:07:44;;;;;;;5.22;2.40;;;9.80;73.90;;;;;;5078990;28;20039;-70
2022/04/29 02:10:13;;;;;;;6.45;2.88;;;9.80;74.00;;;;;;5058700;28;20052;-69
2022/04/29 02:12:40;;;;;;;5.93;2.78;;;9.80;74.00;;;;;;5065705;28;20055;-68
2022/04/29 02:15:23;;;;;;;6.40;2.30;;;9.80;74.00;;;;;;5075519;28;20045;-70
2022/04/29 02:17:50;;;;;;;5.55;2.67;;;9.70;74.00;;;;;;5070966;28;20052;-70
2022/04/29 02:20:18;;;;;;;6.50;2.83;;;9.70;74.10;;;;;;5052876;28;20159;-70
2022/04/29 02:22:45;;;;;;;6.13;3.15;;;9.60;74.50;;;;;;5073911;28;20048;-71
2022/04/29 02:25:13;;;;;;;6.88;3.00;;;9.60;74.60;;;;;;5072619;28;20175;-70
2022/04/29 02:27:41;;;;;;;4.78;2.90;;;9.60;74.60;;;;;;5044252;28;20044;-70
2022/04/29 02:30:10;;;;;;;6.32;3.00;;;9.70;74.50;;;;;;5048952;28;20139;-71
2022/04/29 02:32:37;;;;;;;5.20;3.03;;;9.70;74.40;;;;;;5053028;28;20764;-69
2022/04/29 02:35:06;;;;;;;5.45;3.17;;;9.70;74.60;;;;;;5073709;28;20056;-70
2022/04/29 02:37:33;;;;;;;5.80;2.65;;;9.70;74.50;;;;;;5051285;28;20067;-70
2022/04/29 02:40:00;;;;;;;3.90;2.45;;;9.70;74.50;;;;;;5054793;28;20041;-70
2022/04/29 02:42:30;;;;;;;5.32;2.72;;;9.70;74.50;;;;;;5034288;28;20057;-69
2022/04/29 02:44:57;;;;;;;7.05;3.35;;;9.70;74.60;;;;;;5020624;28;20101;-70
2022/04/29 02:47:27;;;;;;;7.43;3.20;;;9.60;74.60;;;;;;5019319;28;20491;-70
2022/04/29 02:49:55;;;;;;;4.35;2.50;;;9.60;74.60;;;;;;5035302;28;20862;-70
2022/04/29 02:52:22;;;;;;;6.68;3.35;;;9.60;74.60;;;;;;5019249;28;20140;-69
2022/04/29 02:54:49;;;;;;;6.22;3.15;;;9.60;74.60;;;;;;5034169;28;20052;-70
2022/04/29 02:57:36;;;;;;;4.85;2.90;;;9.60;74.70;;;;;;5036947;28;20056;-69
2022/04/29 03:00:05;;;;;;;6.45;3.05;;;9.60;74.60;;;;;;5018048;28;20053;-68
2022/04/29 03:02:32;;;;;;;7.30;3.42;;;9.50;74.80;;;;;;5018911;28;20459;-69
2022/04/29 03:05:00;;;;;;;7.22;2.72;;;9.40;74.90;;;;;;5034970;28;20044;-71
2022/04/29 03:07:27;;;;;;;5.32;2.83;;;9.40;75.10;;;;;;5036040;28;20812;-70
2022/04/29 03:09:56;;;;;;;5.97;2.90;;;9.40;75.10;;;;;;5036072;28;20146;-70
2022/04/29 03:12:23;;;;;;;4.75;2.83;;;9.40;75.10;;;;;;5031937;28;20124;-69
2022/04/29 03:15:15;;;;;;;4.18;2.47;;;9.40;75.10;;;;;;5034913;28;20053;-69
2022/04/29 03:20:37;;;;;;;;;;;9.30;75.20;;;;;;5025359;28;20156;-70
2022/04/29 03:23:04;;;;;;;5.85;2.75;;;9.30;75.30;;;;;;5037691;28;19921;-70
2022/04/29 03:25:32;;;;;;;6.72;2.95;;;9.40;75.30;;;;;;5036467;28;20088;-70
2022/04/29 03:27:59;;;;;;;6.63;3.42;;;9.30;75.30;;;;;;5036696;28;20049;-69
2022/04/29 03:30:28;;;;;;;5.75;2.65;;;9.30;75.40;;;;;;5032846;28;20070;-70
2022/04/29 03:32:57;;;;;;;7.32;3.45;;;9.30;75.40;;;;;;5033977;28;20369;-70
2022/04/29 03:35:32;;;;;;;6.85;3.35;;;9.30;75.30;;;;;;5016274;28;20041;-71
2022/04/29 03:38:00;;;;;;;5.97;3.10;;;9.30;75.30;;;;;;5037098;28;20087;-70
2022/04/29 03:40:28;;;;;;;8.02;3.05;;;9.30;75.30;;;;;;5023362;28;20037;-71
2022/04/29 03:42:57;;;;;;;8.55;3.47;;;9.30;75.30;;;;;;5035009;28;20552;-70
2022/04/29 03:45:28;;;;;;;6.18;3.30;;;9.30;75.20;;;;;;5027116;28;20045;-71
2022/04/29 03:47:58;;;;;;;8.50;3.13;;;9.30;75.10;;;;;;5043396;28;20055;-70
2022/04/29 03:51:03;;;;;;;6.72;3.65;;;9.30;75.10;;;;;;5028814;28;20057;-70
2022/04/29 03:53:31;;;;;;;6.50;3.80;;;9.30;75.20;;;;;;5024307;28;20049;-69
2022/04/29 03:56:04;;;;;;;6.65;2.97;;;9.20;75.20;;;;;;5040529;28;20486;-70
2022/04/29 03:58:31;;;;;;;6.25;3.00;;;9.30;75.20;;;;;;5041191;28;20174;-69
2022/04/29 04:01:00;;;;;;;5.65;3.08;;;9.20;75.30;;;;;;5021034;28;20048;-70
2022/04/29 04:03:48;;;;;;;4.95;2.67;;;9.20;75.20;;;;;;5040741;28;20059;-71
2022/04/29 04:09:05;;;;;;;7.63;2.95;;;9.20;75.40;;;;;;5023670;28;20414;-69
2022/04/29 04:11:33;;;;;;;6.13;3.55;;;9.10;75.40;;;;;;5047456;28;20064;-70
2022/04/29 04:14:00;;;;;;;6.25;3.30;;;9.10;75.50;;;;;;5034186;28;20498;-69
2022/04/29 04:16:35;;;;;;;5.82;3.15;;;9.10;75.60;;;;;;5019258;28;20044;-71
2022/04/29 04:19:02;;;;;;;5.60;3.05;;;9.10;75.70;;;;;;5032873;28;20295;-69
2022/04/29 04:21:29;;;;;;;6.13;3.38;;;9.10;75.70;;;;;;5023998;28;20068;-70
2022/04/29 04:23:57;;;;;;;5.68;3.22;;;9.10;75.70;;;;;;5036261;28;20059;-69
2022/04/29 04:26:24;;;;;;;5.80;3.08;;;9.10;75.60;;;;;;5023199;28;20049;-69
2022/04/29 04:28:52;;;;;;;5.60;3.13;;;9.00;75.80;;;;;;5019588;28;20041;-69
2022/04/29 04:31:21;;;;;;;8.55;3.45;;;9.00;75.80;;;;;;5024815;28;20053;-69
2022/04/29 04:33:54;;;;;;;6.15;3.65;;;9.00;75.70;;;;;;5025856;28;20041;-70
2022/04/29 04:36:21;;;;;;;9.88;3.38;;;8.90;75.80;;;;;;5040588;28;20111;-70
2022/04/29 04:38:48;;;;;;;8.95;3.60;;;8.90;75.80;;;;;;5050356;28;20043;-69
2022/04/29 04:41:16;;;;;;;9.20;3.92;;;8.90;76.00;;;;;;5030462;28;20616;-71
2022/04/29 04:43:44;;;;;;;6.07;3.35;;;8.90;76.10;;;;;;5068185;28;20048;-70
2022/04/29 04:46:13;;;;;;;8.13;3.20;;;8.90;76.20;;;;;;5051345;28;20159;-70
2022/04/29 04:48:40;;;;;;;5.65;3.33;;;8.90;76.00;;;;;;5070260;28;20090;-69
2022/04/29 04:51:14;;;;;;;11.07;3.83;;;8.90;76.20;;;;;;5070452;28;20064;-70
2022/04/29 04:53:47;;;;;;;8.38;4.10;;;8.90;76.20;;;;;;5053405;28;20098;-69
2022/04/29 04:56:15;;;;;;;7.53;3.50;;;8.90;76.30;;;;;;5070203;28;20041;-70
2022/04/29 04:58:42;;;;;;;7.22;3.53;;;8.90;76.30;;;;;;5052401;28;20071;-70
2022/04/29 05:01:09;;;;;;;5.85;3.55;;;8.90;76.20;;;;;;5064910;28;20135;-70
2022/04/29 05:03:36;;;;;;;7.20;3.20;;;8.90;76.30;;;;;;5070525;28;20044;-70
2022/04/29 05:06:40;;;;;;;7.13;3.08;;;8.90;76.40;;;;;;5070817;28;20424;-69
2022/04/29 05:09:07;;;;;;;6.95;3.60;;;8.90;76.50;;;;;;5053001;28;20110;-70
2022/04/29 05:11:36;;;;;;;6.28;3.67;;;8.90;76.60;;;;;;5052237;28;20045;-69
2022/04/29 05:14:04;;;;;;;9.60;3.67;;;9.00;76.70;;;;;;5060916;28;20041;-69
2022/04/29 05:16:37;;;;;;;11.10;3.72;;;9.10;76.70;;;;;;5069758;28;20064;-69
2022/04/29 05:19:24;;;;;;;6.60;3.15;;;9.10;76.70;;;;;;5069602;28;20456;-68
2022/04/29 05:21:53;;;;;;;9.43;4.28;;;9.10;76.70;;;;;;5052789;28;20044;-69
2022/04/29 05:24:20;;;;;;;6.32;3.50;;;9.20;76.90;;;;;;5069250;28;20040;-70
2022/04/29 05:26:47;;;;;;;7.15;3.63;;;9.20;76.70;;;;;;5070405;28;20041;-71
2022/04/29 05:29:34;;;;;;;7.90;3.95;;;9.20;76.90;;;;;;5069347;28;20052;-71
2022/04/29 05:32:20;;;;;;;7.47;3.80;;;9.30;76.90;;;;;;5071208;28;20047;-70
2022/04/29 05:35:14;;;;;;;7.32;3.80;;;9.30;77.10;;;;;;5065573;28;20740;-70
2022/04/29 05:38:02;;;;;;;7.05;4.20;;;9.40;76.80;;;;;;5068536;28;20693;-70
2022/04/29 05:43:14;;;;;;;7.45;3.72;;;9.60;77.10;;;;;;5066472;28;20493;-71
2022/04/29 05:45:41;;;;;;;7.82;3.63;;;9.60;77.20;;;;;;5068614;28;20128;-70
2022/04/29 05:48:09;;;;;;;8.82;4.07;;;9.70;77.10;;;;;;5066500;28;20490;-69
2022/04/29 05:50:36;;;;;;;9.10;4.22;;;9.70;77.10;;;;;;5066871;28;20049;-70
2022/04/29 05:53:06;;;;;;;9.27;4.05;;;9.80;77.10;;;;;;5068294;28;20520;-70
2022/04/29 05:55:34;;;;;;;6.07;3.33;;;9.90;77.00;;;;;;5050758;28;20064;-69
2022/04/29 05:58:01;;;;;;;11.80;4.50;;;10.00;76.90;;;;;;5066245;28;20071;-68
2022/04/29 06:00:28;;;;;;;10.68;3.80;;;10.10;76.90;;;;;;5048489;28;20482;-69
2022/04/29 06:03:05;;;;;;;7.45;3.50;;;10.10;76.80;;;;;;5067803;28;20052;-70
2022/04/29 06:05:32;;;;;;;6.65;3.83;;;10.20;76.90;;;;;;5049854;28;20637;-69
2022/04/29 06:08:00;;;;;;;8.00;4.03;;;10.30;76.60;;;;;;5068091;28;20137;-69
2022/04/29 06:10:39;;;;;;;8.63;3.63;;;10.40;76.50;;;;;;5060555;28;20137;-69
2022/04/29 06:13:08;;;;;;;8.20;4.03;;;10.40;76.60;;;;;;5067503;28;20123;-69
2022/04/29 06:15:49;;;;;;;7.60;4.40;;;10.50;76.80;;;;;;5042044;28;20418;-68
2022/04/29 06:18:36;;;;;;;12.13;3.83;;;10.60;76.60;;;;;;5067169;28;20721;-68
2022/04/29 06:21:26;;;;;;;8.18;3.97;;;10.70;76.50;;;;;;5024380;28;20171;-68
2022/04/29 06:24:03;;;;;;;9.07;4.05;;;10.70;76.40;;;;;;5043501;28;20040;-68
2022/04/29 06:26:31;;;;;;;10.88;4.30;;;10.80;76.30;;;;;;5067367;28;20139;-69
2022/04/29 06:28:59;;;;;;;9.10;4.50;;;10.90;76.20;;;;;;5050929;28;20052;-69
2022/04/29 06:31:26;;;;;;;11.50;4.55;;;10.90;76.00;;;;;;5061634;28;20037;-68
2022/04/29 06:33:53;;;;;;;10.18;4.40;;;11.00;76.10;;;;;;5065277;28;20393;-69
2022/04/29 06:36:20;;;;;;;7.78;4.35;;;11.00;75.90;;;;;;5045880;28;20171;-68
2022/04/29 06:38:52;;;;;;;8.95;4.78;;;11.10;75.80;;;;;;5039616;28;20048;-68
2022/04/29 06:41:46;;;;;;;11.20;4.43;;;11.10;75.90;;;;;;5035090;28;20053;-68
2022/04/29 06:44:29;;;;;;;9.55;4.65;;;11.20;75.70;;;;;;5033702;28;20063;-69
2022/04/29 06:47:15;;;;;;;9.18;4.80;;;11.30;75.60;;;;;;5037902;28;20131;-69
2022/04/29 06:50:01;;;;;;;7.75;4.57;;;11.40;75.30;;;;;;5035192;28;20052;-68
2022/04/29 06:52:48;;;;;;;8.52;3.97;;;11.60;75.40;;;;;;5017185;28;20418;-69
2022/04/29 06:55:21;;;;;;;10.48;5.00;;;11.70;75.20;;;;;;5022031;28;20055;-68
2022/04/29 06:57:51;;;;;;;10.18;4.40;;;11.90;75.10;;;;;;5023722;28;20048;-68
2022/04/29 07:00:19;;;;;;;8.90;4.57;;;12.10;74.90;;;;;;5046675;28;20053;-68
2022/04/29 07:02:46;;;;;;;13.13;4.97;;;12.30;74.80;;;;;;5047243;28;20041;-70
2022/04/29 07:05:14;;;;;;;9.77;4.50;;;12.50;74.30;;;;;;5046275;28;20049;-70
2022/04/29 07:07:41;;;;;;;7.22;4.18;;;12.60;74.00;;;;;;5035528;28;20386;-69
2022/04/29 07:10:28;;;;;;;11.48;4.60;;;12.90;73.80;;;;;;5045156;28;20510;-69
2022/04/29 07:13:28;;;;;;;7.15;4.72;;;13.00;73.80;;;;;;5041586;28;20119;-68
2022/04/29 07:15:56;;;;;;;7.82;4.32;;;13.20;73.80;;;;;;5024304;28;20513;-68
2022/04/29 07:18:41;;;;;;;9.88;4.70;;;13.40;72.90;;;;;;5046463;28;20068;-68
2022/04/29 07:21:08;;;;;;;10.15;5.10;;;13.50;72.30;;;;;;5043320;28;20120;-69
2022/04/29 07:23:35;;;;;;;7.65;3.78;;;13.60;71.90;;;;;;5022416;28;20060;-69
2022/04/29 07:26:02;;;;;;;10.25;5.28;;;13.70;71.60;;;;;;5037050;28;20033;-69
2022/04/29 07:28:31;;;;;;;12.88;5.60;;;13.70;71.70;;;;;;5024034;28;20402;-68
2022/04/29 07:30:59;;;;;;;10.23;4.55;;;13.70;71.10;;;;;;5030097;28;20072;-68
2022/04/29 07:33:46;;;;;;;9.25;4.57;;;13.80;70.20;;;;;;5007262;28;20061;-69
2022/04/29 07:42:01;;;;;;;6.22;3.47;;;14.00;70.10;;;;;;5053408;28;20452;-69
2022/04/29 07:44:30;;;;;;;6.13;3.67;;;14.20;70.00;;;;;;5048743;28;20352;-68
2022/04/29 07:46:59;;;;;;;5.68;3.15;;;14.30;69.30;;;;;;5048514;28;20094;-69
2022/04/29 07:49:29;;;;;;;8.43;4.45;;;14.50;68.80;;;;;;5067883;28;20041;-69
2022/04/29 07:51:56;;;;;;;7.50;3.38;;;14.60;69.00;;;;;;5060818;28;20044;-70
2022/04/29 07:54:24;;;;;;;6.95;3.63;;;14.70;68.80;;;;;;5058570;28;20048;-68
2022/04/29 07:56:53;;;;;;;8.40;3.42;;;14.70;68.10;;;;;;5058014;28;20052;-69
2022/04/29 07:59:20;;;;;;;8.15;3.60;;;14.80;68.10;;;;;;5057559;28;20052;-69
2022/04/29 08:01:49;;;;;;;9.38;3.75;;;14.80;68.20;;;;;;5053068;28;20053;-69
2022/04/29 08:04:17;;;;;;;6.35;3.17;;;14.90;67.70;;;;;;5075938;28;20051;-70
2022/04/29 08:06:44;;;;;;;7.82;3.58;;;14.90;67.80;;;;;;5051013;28;20462;-71
2022/04/29 08:09:12;;;;;;;7.40;4.28;;;14.90;67.50;;;;;;5055574;28;20394;-70
2022/04/29 08:11:40;;;;;;;8.27;3.30;;;14.90;66.90;;;;;;5037538;28;20545;-69
2022/04/29 08:14:27;;;;;;;8.20;3.17;;;14.90;67.20;;;;;;5068553;28;20118;-68
2022/04/29 08:17:14;;;;;;;7.05;3.50;;;14.90;67.00;;;;;;5076096;28;20043;-68
2022/04/29 08:19:48;;;;;;;9.52;4.00;;;14.90;67.00;;;;;;5061997;28;20060;-69
2022/04/29 08:22:20;;;;;;;8.43;3.90;;;14.90;67.20;;;;;;5062009;28;20776;-67
2022/04/29 08:24:49;;;;;;;6.20;3.38;;;14.90;67.20;;;;;;5068431;28;20052;-67
2022/04/29 08:27:16;;;;;;;6.13;3.83;;;14.90;67.30;;;;;;5054271;28;20040;-67
2022/04/29 08:29:43;;;;;;;6.47;3.63;;;14.90;67.50;;;;;;5057786;28;20044;-69
2022/04/29 08:32:10;;;;;;;6.82;3.75;;;14.90;67.40;;;;;;5038649;28;20042;-68
2022/04/29 08:34:43;;;;;;;8.18;4.13;;;14.90;67.40;;;;;;5045891;28;20064;-68
2022/04/29 08:37:11;;;;;;;6.18;2.92;;;14.90;67.00;;;;;;5038015;28;20074;-68
2022/04/29 08:39:43;;;;;;;7.10;4.20;;;14.90;67.00;;;;;;5056279;28;20056;-70
2022/04/29 08:42:13;;;;;;;6.50;3.10;;;15.00;67.00;;;;;;5052873;28;20044;-69
2022/04/29 08:44:42;;;;;;;5.50;2.72;;;15.00;67.10;;;;;;5029294;28;20041;-69
2022/04/29 08:47:27;;;;;;;9.80;3.35;;;15.10;67.50;;;;;;5028322;28;20064;-69
2022/04/29 08:50:13;;;;;;;5.10;3.05;;;15.10;67.30;;;;;;5019290;28;20049;-70
2022/04/29 08:52:41;;;;;;;4.93;3.28;;;15.30;67.30;;;;;;5044273;28;20131;-69
2022/04/29 09:00:41;;;;;;;6.63;3.00;;;15.70;67.40;;;;;;5039826;28;20057;-67
2022/04/29 09:03:12;;;;;;;4.82;2.80;;;16.00;66.80;;;;;;5038498;28;20103;-68
2022/04/29 09:05:41;;;;;;;3.90;2.55;;;16.10;66.50;;;;;;5042260;28;20041;-70
2022/04/29 09:08:12;;;;;;;5.60;3.13;;;16.30;66.50;;;;;;5041169;28;20124;-69
2022/04/29 09:10:47;;;;;;;4.18;2.33;;;16.50;66.10;;;;;;5041411;28;20048;-72
2022/04/29 09:13:16;;;;;;;6.22;3.08;;;16.60;66.40;;;;;;5041571;28;20510;-73
2022/04/29 09:15:51;;;;;;;4.63;2.92;;;16.80;65.20;;;;;;5041621;28;20040;-72
2022/04/29 09:18:32;;;;;;;4.18;2.70;;;16.90;65.20;;;;;;5041329;28;20124;-73
2022/04/29 09:21:04;;;;;;;7.25;2.97;;;17.00;65.90;;;;;;5042143;28;20057;-72
2022/04/29 09:23:36;;;;;;;4.93;2.50;;;17.10;64.20;;;;;;5025798;28;20041;-72
2022/04/29 09:26:23;;;;;;;5.88;2.63;;;17.20;64.60;;;;;;5039405;28;20083;-73
2022/04/29 09:29:13;;;;;;;4.90;2.38;;;17.40;63.80;;;;;;5044166;28;20068;-72
2022/04/29 09:31:53;;;;;;;4.88;2.42;;;17.40;63.10;;;;;;5041166;28;20127;-72
2022/04/29 09:34:46;;;;;;;5.28;3.08;;;17.50;62.70;;;;;;5040778;28;20145;-71
2022/04/29 09:37:16;;;;;;;5.60;2.72;;;17.50;61.80;;;;;;5042118;28;20049;-72
2022/04/29 09:39:50;;;;;;;2.83;1.83;;;17.50;61.90;;;;;;5043743;28;20119;-72
2022/04/29 09:42:17;;;;;;;4.68;2.50;;;17.60;61.50;;;;;;5041639;28;20071;-73
2022/04/29 09:44:45;;;;;;;3.50;2.40;;;17.60;61.20;;;;;;5039892;28;20056;-73
2022/04/29 09:47:14;;;;;;;4.38;2.25;;;17.60;60.80;;;;;;5042148;28;20037;-73
2022/04/29 09:49:42;;;;;;;3.55;2.50;;;17.60;60.20;;;;;;5039650;28;20064;-70
2022/04/29 09:52:09;;;;;;;7.15;2.15;;;17.60;60.70;;;;;;5038889;28;20059;-71
2022/04/29 09:54:38;;;;;;;5.53;2.45;;;17.50;59.80;;;;;;5040854;28;20108;-70
2022/04/29 09:57:13;;;;;;;4.82;2.40;;;17.50;59.40;;;;;;5041486;28;20049;-71
2022/04/29 09:59:42;;;;;;;4.03;2.42;;;17.50;57.50;;;;;;5040135;28;20041;-70
2022/04/29 10:02:11;;;;;;;5.18;2.28;;;17.50;58.50;;;;;;5022853;28;20056;-72
2022/04/29 10:04:41;;;;;;;5.88;2.38;;;17.50;58.00;;;;;;5023659;28;20490;-71
2022/04/29 10:07:09;;;;;;;3.42;1.80;;;17.50;58.20;;;;;;5031499;28;20104;-72
2022/04/29 10:09:41;;;;;;;4.22;1.77;;;17.50;59.00;;;;;;5016006;28;20132;-72
2022/04/29 10:12:13;;;;;;;4.38;1.85;;;17.60;59.30;;;;;;5041935;28;20052;-71
2022/04/29 10:14:45;;;;;;;3.40;2.10;;;17.60;59.30;;;;;;5009682;28;20068;-72
2022/04/29 10:23:09;;;;;;;3.83;2.10;;;17.70;58.40;;;;;;5037819;28;20048;-72
2022/04/29 10:25:41;;;;;;;3.85;1.92;;;17.80;58.00;;;;;;5040832;28;20041;-72
2022/04/29 10:28:10;;;;;;;4.65;2.30;;;17.90;57.40;;;;;;5050278;28;20463;-72
2022/04/29 10:30:38;;;;;;;3.60;1.98;;;18.10;56.90;;;;;;5024012;28;20067;-72
2022/04/29 10:33:07;;;;;;;2.50;1.88;;;17.90;56.40;;;;;;5016615;28;20091;-72
2022/04/29 10:35:50;;;;;;;4.00;2.05;;;17.90;56.00;;;;;;5040414;28;20633;-71
2022/04/29 10:38:19;;;;;;;2.92;1.90;;;17.80;56.00;;;;;;5039196;28;20063;-72
2022/04/29 10:40:49;;;;;;;3.38;1.73;;;17.80;55.60;;;;;;5042118;28;20102;-71
2022/04/29 10:43:18;;;;;;;2.92;1.67;;;17.70;55.70;;;;;;5053303;28;20056;-71
2022/04/29 10:46:20;;;;;;;3.20;1.42;;;17.70;55.70;;;;;;5067871;28;20137;-72
2022/04/29 10:48:55;;;;;;;2.35;1.33;;;17.70;55.00;;;;;;4965425;28;20046;-72
2022/04/29 10:51:49;;;;;;;3.20;1.85;;;17.70;55.40;;;;;;4978207;28;20054;-71
2022/04/29 10:54:43;;;;;;;3.70;1.63;;;17.90;55.50;;;;;;5047749;28;20044;-72
2022/04/29 10:57:40;;;;;;;3.00;1.80;;;18.10;55.40;;;;;;5058318;28;20052;-72
2022/04/29 11:00:12;;;;;;;3.95;1.70;;;18.20;55.60;;;;;;5077101;28;20060;-70
2022/04/29 11:02:43;;;;;;;4.55;2.10;;;18.20;55.80;;;;;;5054979;28;20044;-72
2022/04/29 11:05:34;;;;;;;3.30;2.00;;;18.30;54.80;;;;;;5066614;28;20044;-72
2022/04/29 11:08:08;;;;;;;3.45;2.00;;;18.40;54.60;;;;;;5061832;28;20033;-72
2022/04/29 11:10:54;;;;;;;6.93;2.80;;;18.50;53.90;;;;;;5058421;28;20048;-66
2022/04/29 11:13:24;;;;;;;3.72;2.08;;;18.50;55.10;;;;;;5066574;28;20040;-66
2022/04/29 11:16:20;;;;;;;3.40;1.80;;;18.60;53.90;;;;;;5061101;28;20059;-64
2022/04/29 11:19:21;;;;;;;4.13;2.05;;;18.60;52.50;;;;;;5061974;28;20048;-70
2022/04/29 11:24:44;;;;;;;2.55;1.83;;;18.60;52.30;;;;;;5070767;28;20387;-69
2022/04/29 11:27:25;;;;;;;3.38;1.95;;;18.60;52.10;;;;;;5050837;28;20056;-70
2022/04/29 11:30:01;;;;;;;3.00;1.57;;;18.50;52.10;;;;;;5062882;28;20048;-70
2022/04/29 11:32:47;;;;;;;5.38;1.85;;;18.50;52.50;;;;;;5076107;28;20453;-70
2022/04/29 11:35:14;;;;;;;5.28;1.88;;;18.60;53.00;;;;;;5075385;28;20044;-69
2022/04/29 11:37:41;;;;;;;4.18;2.03;;;18.60;52.60;;;;;;5070053;28;20056;-68
2022/04/29 11:40:10;;;;;;;5.43;2.83;;;18.60;52.20;;;;;;5073817;28;20052;-69
2022/04/29 11:42:37;;;;;;;4.72;1.92;;;18.50;52.30;;;;;;5053279;28;20127;-70
2022/04/29 11:45:09;;;;;;;4.78;2.30;;;18.50;52.00;;;;;;5027895;28;20477;-70
2022/04/29 11:47:37;;;;;;;6.38;2.90;;;18.60;52.00;;;;;;5028679;28;20157;-70
2022/04/29 11:50:06;;;;;;;6.63;3.55;;;18.60;52.00;;;;;;5028494;28;20128;-69
2022/04/29 11:52:36;;;;;;;6.70;4.20;;;18.60;52.00;;;;;;5044054;28;21516;-70
2022/04/29 11:55:06;;;;;;;7.63;3.45;;;18.60;51.90;;;;;;5043030;28;20047;-69
2022/04/29 11:57:34;;;;;;;9.80;4.60;;;18.60;51.00;;;;;;5044537;28;20102;-70
2022/04/29 12:00:05;;;;;;;8.15;3.72;;;18.60;51.10;;;;;;5044225;28;20041;-70
2022/04/29 12:02:46;;;;;;;5.95;3.40;;;18.60;51.10;;;;;;5047686;28;20053;-70
2022/04/29 12:05:15;;;;;;;7.85;2.95;;;18.60;51.20;;;;;;5044644;28;20041;-71
2022/04/29 12:07:46;;;;;;;5.78;2.95;;;18.60;51.50;;;;;;5048966;28;20052;-70
2022/04/29 12:10:21;;;;;;;5.97;2.67;;;18.60;51.20;;;;;;5025954;28;20053;-70
2022/04/29 12:12:49;;;;;;;6.70;3.45;;;18.70;51.20;;;;;;5047596;28;20879;-69
2022/04/29 12:15:18;;;;;;;5.88;3.33;;;18.70;51.10;;;;;;5050666;28;20130;-70
2022/04/29 12:17:48;;;;;;;7.90;3.38;;;18.70;50.80;;;;;;5052379;28;20041;-70
2022/04/29 12:20:20;;;;;;;6.43;3.00;;;18.80;51.40;;;;;;5048810;28;20041;-71
2022/04/29 12:22:49;;;;;;;6.35;3.10;;;18.80;51.30;;;;;;5042754;28;20059;-70
2022/04/29 12:25:25;;;;;;;5.63;2.78;;;18.90;51.40;;;;;;5043614;28;20036;-70
2022/04/29 12:28:10;;;;;;;6.65;3.78;;;18.90;50.80;;;;;;5043624;28;20047;-69
2022/04/29 12:36:10;;;;;;;7.05;2.55;;;19.00;50.50;;;;;;5043072;28;20068;-70
2022/04/29 12:38:38;;;;;;;4.00;2.05;;;19.00;50.60;;;;;;5044813;28;20037;-70
2022/04/29 12:41:16;;;;;;;8.15;2.88;;;19.10;50.40;;;;;;5050260;28;20048;-70
2022/04/29 12:43:44;;;;;;;7.00;3.50;;;19.10;49.90;;;;;;5068948;28;20094;-69
2022/04/29 12:46:14;;;;;;;5.00;2.42;;;19.10;49.80;;;;;;5066903;28;20045;-71
2022/04/29 12:48:48;;;;;;;4.82;2.20;;;19.10;49.10;;;;;;5067818;28;20051;-71
2022/04/29 12:51:26;;;;;;;3.95;2.17;;;19.10;48.90;;;;;;5067236;28;20041;-71
2022/04/29 12:53:54;;;;;;;6.38;3.28;;;19.10;49.50;;;;;;5065130;28;20048;-70
2022/04/29 12:56:24;;;;;;;6.00;2.88;;;19.10;49.20;;;;;;5062806;28;20069;-70
2022/04/29 12:58:51;;;;;;;3.35;2.00;;;19.10;49.60;;;;;;5063681;28;20106;-69
2022/04/29 13:01:18;;;;;;;6.18;2.03;;;19.10;48.70;;;;;;5062022;28;20106;-70
2022/04/29 13:03:58;;;;;;;4.88;2.45;;;19.10;49.40;;;;;;5046205;28;20167;-70
2022/04/29 13:06:31;;;;;;;4.68;2.38;;;19.10;48.80;;;;;;5064808;28;20049;-69
2022/04/29 13:08:59;;;;;;;6.13;3.00;;;19.20;49.30;;;;;;5065153;28;20043;-70
2022/04/29 13:11:26;;;;;;;5.95;3.08;;;19.20;49.10;;;;;;5063434;28;20076;-70
2022/04/29 13:13:54;;;;;;;4.97;2.83;;;19.20;47.90;;;;;;5044803;28;20098;-69
2022/04/29 13:16:24;;;;;;;6.20;3.07;;;19.20;48.40;;;;;;5054273;28;20037;-70
2022/04/29 13:18:53;;;;;;;6.50;3.20;;;19.20;48.60;;;;;;5040353;28;20476;-72
2022/04/29 13:21:22;;;;;;;6.75;3.08;;;19.20;47.90;;;;;;5063397;28;20102;-70
2022/04/29 13:23:56;;;;;;;4.90;2.70;;;19.20;48.90;;;;;;5063657;28;20083;-71
2022/04/29 13:26:33;;;;;;;4.10;2.38;;;19.20;48.60;;;;;;5043077;28;20405;-70
2022/04/29 13:29:00;;;;;;;6.65;2.45;;;19.20;47.90;;;;;;5063490;28;20115;-69
2022/04/29 13:31:27;;;;;;;4.22;2.20;;;19.20;47.60;;;;;;5064468;28;20140;-71
2022/04/29 13:33:54;;;;;;;3.60;1.85;;;19.20;46.80;;;;;;5063966;28;20051;-69
2022/04/29 13:36:23;;;;;;;3.17;1.80;;;19.20;47.70;;;;;;5069003;28;20056;-70
2022/04/29 13:38:50;;;;;;;3.33;1.77;;;19.20;48.40;;;;;;5067150;28;20052;-70
2022/04/29 13:41:19;;;;;;;4.00;2.00;;;19.20;47.70;;;;;;5049129;28;20056;-70
2022/04/29 13:43:46;;;;;;;3.58;1.60;;;19.20;48.20;;;;;;5046029;28;20486;-71
2022/04/29 13:46:14;;;;;;;4.35;2.00;;;19.20;48.60;;;;;;5047377;28;20072;-72
2022/04/29 13:48:42;;;;;;;4.50;1.85;;;19.20;49.00;;;;;;5048186;28;20450;-71